Aérodrome :
LOGIN :

S'inscrire | Disclaimer

   EN    FR    IT 

 










Légende :    VFR   VFR Marginal   IFR   IFR Intensif   IFR Très Intensif
Visi : 
Plafond : 
>= 8 km
>= 3000ft
5 à 8 km
1000 à 3000 ft
1500m à 5 km
500 à 1000 ft
800 à 1500m
200 à 500 ft
< 800m
< 200 ft
Symboles :   Orages  Brouillard  Fortes neiges  Fortes précipitations  Vent > 20 kt
SIGMETs :   Divers  Orages  Givrage  Turbulence  Onde Orograph.  Cendres Volcan.







- Altitude de l'aérodrome : 19 ft
- Code IATA : LCY
- Voir les cartes d'approche


EGLC - London City

DERNIER METAR :
  • 221350Z AUTO 23006KT 190V260 9999 SCT031 07/M00 Q1000

METARs EXPIRÉS :
  • 221320Z AUTO 25007KT 9999 FEW027 07/00 Q1001
  • 221250Z AUTO 24007KT 9999 FEW026 07/01 Q1001
  • 221220Z AUTO 25009KT 9999 NCD 06/01 Q1002
  • 221150Z AUTO 24006KT 200V270 9999 NCD 06/01 Q1002
  • 221120Z AUTO 24008KT 9999 NCD 05/01 Q1003

TAF TAF EGLC
Valide du 22 à 12h jusqu'au 22 à 21h UTC


221057Z 2212/2221 27009KT 9999 FEW020
TEMPO 2214/2218 6000 -SHRA BKN010
PROB30
TEMPO 2214/2218 3000 SHRA -SHRASN BKN005
PROB30
TEMPO 2218/2220 2000 -SHRASN BKN005
ATIS : +44 20 7646 0224
Pas de NOTAMs connus pour ce terrain.
1 SIGMET publié pour la FIR London (EGTT) :
 
Turbulence forte
EGTT SIGMET 01 VALID 221030/221430 EGRR
EGTT LONDON FIR SEV TURB FCST WI N5220 W00530 - N5429 W00530 - N5214 W00410 - N5045 W00342 - N4947 W00604 - N5143 W00639 - N5220 W00530 FL160/400 MOV E 15KT NC=



MET'MAP, la Météo Aéronautique d'un coup d'oeil ! - Copyright ORBIFLY Décembre 2007 - Disclaimer

ORBIFLY MET'MAP TEAM :

Programmation & Développement : Alexandra Zaïnal
Conception & Développement : Baudouin d'Aumeries
Co-Programmation & Développement : Marc-Olivier Méhu
Soutien technique & logistique : Manuel Goepfert

Contact : metmap@orbifly.com




SOURCES & CREDITS :

   NOAA